Birk — V2BF5 — position and weather

sailwx.info

Track history (hours):
 
Tides and Currents Weather Stations Pressure Air Temp Water Temp Dewpoint Dewpoint Depression Visibility Wind Speed Wind Dir Waves Ship Positions

Birk

Last reported at 2014-Sep-17 05:33 UTC. Time now 2014-Sep-20 06:01 UTC.
Position N 16°22' W 061°57'.

Length 132 m; draft 6.8 m.

Type: Ship. MMSI: 304535000.

Date/timePositionNaut miles runAvg speedWind from/ knotsBaromVisibWave heightAir tempDewpointWater temp
2014-Sep-17 05:33N 16°22' W 061°57'1616.0
2014-Sep-17 04:33N 16°37' W 061°57'1616.0
2014-Sep-17 03:33N 16°54' W 061°57'87 7.6
2014-Sep-16 16:08N 17°55' W 063°02'8 2.0
2014-Sep-16 12:14N 17°60' W 063°08'1115.7
2014-Sep-16 11:30N 17°59' W 063°20'1414.8
2014-Sep-16 10:33N 17°58' W 063°35'  
2014-Sep-13 06:12N 25°34' W 080°00'812.2
2014-Sep-13 05:33N 25°41' W 080°02'7 7.3
2014-Sep-13 04:33N 25°46' W 080°08'1 0.0
2014-Sep-12 11:33N 25°46' W 080°08'1111.4
2014-Sep-12 10:33N 25°36' W 080°01'  
Track history (hours):
 
Tides and Currents Weather Stations Pressure Air Temp Water Temp Dewpoint Dewpoint Depression Visibility Wind Speed Wind Dir Waves Ship Positions

Birk

Last reported at 2014-Sep-17 05:33 UTC. Time now 2014-Sep-20 06:01 UTC.
Position N 16°22' W 061°57'.

Length 132 m; draft 6.8 m.

Type: Ship. MMSI: 304535000.

Date/timePositionNaut miles runAvg speedWind from/ knotsBaromVisibWave heightAir tempDewpointWater temp
2014-Sep-17 05:33N 16°22' W 061°57'1616.0
2014-Sep-17 04:33N 16°37' W 061°57'1616.0
2014-Sep-17 03:33N 16°54' W 061°57'87 7.6
2014-Sep-16 16:08N 17°55' W 063°02'8 2.0
2014-Sep-16 12:14N 17°60' W 063°08'1115.7
2014-Sep-16 11:30N 17°59' W 063°20'1414.8
2014-Sep-16 10:33N 17°58' W 063°35'  
2014-Sep-13 06:12N 25°34' W 080°00'812.2
2014-Sep-13 05:33N 25°41' W 080°02'7 7.3
2014-Sep-13 04:33N 25°46' W 080°08'1 0.0
2014-Sep-12 11:33N 25°46' W 080°08'1111.4
2014-Sep-12 10:33N 25°36' W 080°01'  

Dump ship's entire track history